createdAt,value
2024-03-02T00:01:39.089Z,7.29
2024-03-02T00:03:42.133Z,7.25
2024-03-02T00:05:44.659Z,7.30
2024-03-02T00:07:53.485Z,7.33
2024-03-02T00:09:56.660Z,7.29
2024-03-02T00:11:59.297Z,7.52
2024-03-02T00:14:01.586Z,7.48
2024-03-02T00:16:06.729Z,7.54
2024-03-02T00:18:11.962Z,7.59
2024-03-02T00:20:19.416Z,7.66
2024-03-02T00:22:21.511Z,7.68
2024-03-02T00:24:36.589Z,7.63
2024-03-02T00:26:38.893Z,7.48
2024-03-02T00:28:41.240Z,7.47
2024-03-02T00:30:49.491Z,7.48
2024-03-02T00:32:54.089Z,7.48
2024-03-02T00:34:56.083Z,7.51
2024-03-02T00:37:01.333Z,7.49
2024-03-02T00:39:04.065Z,7.47
2024-03-02T00:41:08.744Z,7.40
2024-03-02T00:43:18.253Z,7.48
2024-03-02T00:45:20.719Z,7.41
2024-03-02T00:47:25.274Z,7.37
2024-03-02T00:49:28.233Z,7.46
2024-03-02T00:51:32.744Z,7.40
2024-03-02T00:53:34.940Z,7.47
2024-03-02T00:55:38.766Z,7.50
2024-03-02T00:57:40.748Z,7.44
2024-03-02T00:59:42.748Z,7.49
2024-03-02T01:01:44.906Z,7.45
2024-03-02T01:03:47.740Z,7.44
2024-03-02T01:05:49.821Z,7.37
2024-03-02T01:07:51.766Z,7.43
2024-03-02T01:09:53.838Z,7.47
2024-03-02T01:11:55.937Z,7.52
2024-03-02T01:13:57.956Z,7.58
2024-03-02T01:16:00.327Z,7.60
2024-03-02T01:18:02.639Z,7.63
2024-03-02T01:20:05.770Z,7.58
2024-03-02T01:22:07.823Z,7.65
2024-03-02T01:24:09.889Z,7.70
2024-03-02T01:26:11.990Z,7.76
2024-03-02T01:28:14.404Z,7.72
2024-03-02T01:30:16.712Z,7.69
2024-03-02T01:32:19.082Z,7.81
2024-03-02T01:34:21.876Z,7.73
2024-03-02T01:36:23.825Z,7.72
2024-03-02T01:38:26.005Z,7.86
2024-03-02T01:40:30.997Z,7.96
2024-03-02T01:42:32.959Z,8.09
2024-03-02T01:44:34.925Z,8.18
2024-03-02T01:46:39.424Z,8.23
2024-03-02T01:48:41.402Z,8.21
2024-03-02T01:50:43.622Z,8.26
2024-03-02T01:52:45.637Z,8.14
2024-03-02T01:54:47.904Z,8.10
2024-03-02T01:56:50.266Z,8.01
2024-03-02T01:58:52.423Z,8.04
2024-03-02T02:00:54.575Z,8.04
2024-03-02T02:02:56.637Z,8.12
2024-03-02T02:04:58.550Z,8.03
2024-03-02T02:07:02.949Z,8.02
2024-03-02T02:09:04.929Z,8.13
2024-03-02T02:11:07.711Z,8.06
2024-03-02T02:13:09.902Z,8.20
2024-03-02T02:15:18.063Z,8.33
2024-03-02T02:17:22.578Z,8.27
2024-03-02T02:19:24.513Z,8.39
2024-03-02T02:21:28.537Z,8.42
2024-03-02T02:23:30.601Z,8.37
2024-03-02T02:25:32.766Z,8.36
2024-03-02T02:27:34.877Z,8.16
2024-03-02T02:29:38.711Z,7.99
2024-03-02T02:31:41.642Z,7.98
2024-03-02T02:33:44.290Z,8.00
2024-03-02T02:35:46.289Z,8.14
2024-03-02T02:37:48.981Z,7.93
2024-03-02T02:39:51.091Z,8.02
2024-03-02T02:41:53.152Z,7.93
2024-03-02T02:43:55.075Z,7.83
2024-03-02T02:45:57.021Z,7.65
2024-03-02T02:47:59.157Z,7.81
2024-03-02T02:50:01.185Z,7.75
2024-03-02T02:52:03.181Z,7.73
2024-03-02T02:54:05.256Z,7.77
2024-03-02T02:56:07.940Z,7.76
2024-03-02T02:58:10.133Z,7.77
2024-03-02T03:00:17.048Z,7.80
2024-03-02T03:02:20.048Z,7.76
2024-03-02T03:04:24.917Z,7.81
2024-03-02T03:06:26.971Z,7.79
2024-03-02T03:08:29.042Z,7.77
2024-03-02T03:10:30.968Z,7.77
2024-03-02T03:12:33.011Z,7.60
2024-03-02T03:14:35.083Z,7.77
2024-03-02T03:16:37.175Z,7.79
2024-03-02T03:18:39.770Z,7.82
2024-03-02T03:20:41.721Z,7.81
2024-03-02T03:22:43.880Z,7.93
2024-03-02T03:24:46.036Z,7.92
2024-03-02T03:26:48.119Z,7.80
2024-03-02T03:28:52.192Z,7.90
2024-03-02T03:30:54.231Z,7.95
2024-03-02T03:32:56.297Z,7.91
2024-03-02T03:34:58.430Z,8.02
2024-03-02T03:37:00.633Z,8.01
2024-03-02T03:39:04.679Z,8.14
2024-03-02T03:41:06.801Z,8.22
2024-03-02T03:43:08.764Z,8.11
2024-03-02T03:45:11.086Z,8.04
2024-03-02T03:47:13.282Z,8.00
2024-03-02T03:49:15.272Z,7.80
2024-03-02T03:51:17.652Z,7.83
2024-03-02T03:53:19.901Z,7.86
2024-03-02T03:55:21.849Z,7.83
2024-03-02T03:57:23.848Z,7.97
2024-03-02T03:59:26.059Z,7.88
2024-03-02T04:01:28.024Z,7.88
2024-03-02T04:03:30.199Z,7.95
2024-03-02T04:05:32.187Z,7.98
2024-03-02T04:07:34.210Z,7.99
2024-03-02T04:09:36.263Z,7.98
2024-03-02T04:11:38.442Z,8.01
2024-03-02T04:13:40.389Z,7.93
2024-03-02T04:15:42.820Z,7.97
2024-03-02T04:17:44.866Z,7.94
2024-03-02T04:19:46.864Z,7.86
2024-03-02T04:21:48.806Z,7.93
2024-03-02T04:23:50.757Z,7.94
2024-03-02T04:25:52.789Z,7.92
2024-03-02T04:27:54.842Z,7.80
2024-03-02T04:29:56.885Z,7.95
2024-03-02T04:31:58.887Z,7.81
2024-03-02T04:34:00.845Z,7.87
2024-03-02T04:36:02.883Z,7.94
2024-03-02T04:38:05.256Z,8.00
2024-03-02T04:40:10.283Z,8.02
2024-03-02T04:42:12.373Z,7.90
2024-03-02T04:44:14.280Z,7.96
2024-03-02T04:46:16.607Z,8.16
2024-03-02T04:48:18.666Z,8.18
2024-03-02T04:50:20.619Z,8.14
2024-03-02T04:52:22.537Z,8.20
2024-03-02T04:54:24.454Z,8.07
2024-03-02T04:56:29.584Z,8.14
2024-03-02T04:58:31.993Z,8.09
2024-03-02T05:00:34.652Z,7.97
2024-03-02T05:02:37.337Z,7.99
2024-03-02T05:04:39.313Z,8.07
2024-03-02T05:06:41.894Z,7.85
2024-03-02T05:08:46.128Z,7.99
2024-03-02T05:10:48.141Z,8.05
2024-03-02T05:12:58.580Z,8.18
2024-03-02T05:15:00.906Z,8.07
2024-03-02T05:17:02.881Z,8.00
2024-03-02T05:19:04.929Z,7.94
2024-03-02T05:21:07.757Z,7.95
2024-03-02T05:23:09.742Z,7.82
2024-03-02T05:25:12.072Z,7.89
2024-03-02T05:27:14.110Z,7.82
2024-03-02T05:29:16.156Z,7.89
2024-03-02T05:31:18.267Z,7.88
2024-03-02T05:33:23.827Z,7.92
2024-03-02T05:35:27.853Z,7.84
2024-03-02T05:37:29.970Z,7.93
2024-03-02T05:39:31.930Z,7.84
2024-03-02T05:41:33.956Z,7.59
2024-03-02T05:43:37.991Z,7.79
2024-03-02T05:45:43.097Z,7.88
2024-03-02T05:47:45.153Z,7.93
2024-03-02T05:49:47.242Z,7.95
2024-03-02T05:51:49.820Z,7.95
2024-03-02T05:53:51.826Z,8.03
2024-03-02T05:55:56.868Z,8.05
2024-03-02T05:58:00.348Z,8.11
2024-03-02T06:00:02.351Z,8.08
2024-03-02T06:02:05.003Z,8.10
2024-03-02T06:04:07.406Z,8.11
2024-03-02T06:06:09.484Z,8.22
2024-03-02T06:08:11.645Z,8.16
2024-03-02T06:10:14.620Z,8.16
2024-03-02T06:12:17.115Z,8.19
2024-03-02T06:14:19.152Z,7.99
2024-03-02T06:16:21.111Z,7.90
2024-03-02T06:18:23.393Z,7.73
2024-03-02T06:20:25.316Z,7.86
2024-03-02T06:22:27.271Z,7.91
2024-03-02T06:24:29.355Z,7.87
2024-03-02T06:26:32.865Z,7.84
2024-03-02T06:28:34.792Z,7.85
2024-03-02T06:30:36.755Z,7.67
2024-03-02T06:32:41.293Z,7.70
2024-03-02T06:34:43.317Z,7.64
2024-03-02T06:36:45.477Z,7.61
2024-03-02T06:38:47.500Z,7.64
2024-03-02T06:40:49.353Z,7.77
2024-03-02T06:42:51.402Z,7.86
2024-03-02T06:44:53.311Z,7.85
2024-03-02T06:46:55.242Z,7.77
2024-03-02T06:48:57.275Z,7.82
2024-03-02T06:50:59.637Z,7.85
2024-03-02T06:53:05.538Z,7.86
2024-03-02T06:55:08.093Z,7.98
2024-03-02T06:57:10.042Z,7.95
2024-03-02T06:59:12.020Z,7.96
2024-03-02T07:01:14.116Z,8.07
2024-03-02T07:03:16.117Z,8.06
2024-03-02T07:05:18.154Z,7.94
2024-03-02T07:07:20.271Z,7.92
2024-03-02T07:09:24.276Z,7.99
2024-03-02T07:11:26.310Z,8.02
2024-03-02T07:13:30.393Z,8.11
2024-03-02T07:15:35.698Z,8.02
2024-03-02T07:17:38.438Z,7.86
2024-03-02T07:19:40.755Z,7.98
2024-03-02T07:21:43.642Z,7.99
2024-03-02T07:23:45.619Z,7.96
2024-03-02T07:27:55.422Z,8.02
2024-03-02T07:29:57.397Z,8.21
2024-03-02T07:31:59.751Z,8.03
2024-03-02T07:34:02.110Z,8.07
2024-03-02T07:36:05.570Z,8.08
2024-03-02T07:38:08.372Z,8.09
2024-03-02T07:40:12.665Z,8.01
2024-03-02T07:42:17.083Z,8.12
2024-03-02T07:44:20.187Z,8.07
2024-03-02T07:46:22.733Z,8.13
2024-03-02T07:48:25.244Z,8.14
2024-03-02T07:50:27.372Z,8.15
2024-03-02T07:52:29.488Z,8.17
2024-03-02T07:54:31.855Z,8.20
2024-03-02T07:56:34.054Z,8.29
2024-03-02T07:58:36.691Z,8.26
2024-03-02T08:00:41.578Z,8.07
2024-03-02T08:02:43.810Z,8.23
2024-03-02T08:04:47.317Z,8.13
2024-03-02T08:06:49.655Z,8.03
2024-03-02T08:08:51.816Z,8.13
2024-03-02T08:10:53.791Z,8.00
2024-03-02T08:12:58.109Z,7.97
2024-03-02T08:15:00.374Z,7.86
2024-03-02T08:17:03.000Z,8.01
2024-03-02T08:19:05.289Z,7.91
2024-03-02T08:21:09.226Z,8.02
2024-03-02T08:23:11.660Z,8.04
2024-03-02T08:25:13.784Z,8.07
2024-03-02T08:27:16.218Z,8.04
2024-03-02T08:29:18.415Z,8.10
2024-03-02T08:31:21.048Z,8.08
2024-03-02T08:33:24.886Z,8.05
2024-03-02T08:35:30.168Z,8.25
2024-03-02T08:37:32.607Z,8.14
2024-03-02T08:39:34.971Z,8.22
2024-03-02T08:41:37.390Z,8.07
2024-03-02T08:43:39.900Z,7.80
2024-03-02T08:45:43.006Z,7.88
2024-03-02T08:47:45.283Z,7.73
2024-03-02T08:49:47.663Z,8.00
2024-03-02T08:51:56.446Z,7.74
2024-03-02T08:54:01.648Z,7.78
2024-03-02T08:56:06.572Z,7.69
2024-03-02T08:58:08.911Z,7.70
2024-03-02T09:00:11.975Z,7.88
2024-03-02T09:02:14.371Z,7.63
2024-03-02T09:04:18.990Z,7.71
2024-03-02T09:06:22.570Z,7.71
2024-03-02T09:08:24.700Z,7.68
2024-03-02T09:10:28.828Z,7.59
2024-03-02T09:12:31.153Z,7.55
2024-03-02T09:14:33.216Z,7.69
2024-03-02T09:16:35.870Z,7.55
2024-03-02T09:18:37.971Z,7.43
2024-03-02T09:20:43.105Z,7.61
2024-03-02T09:22:45.368Z,7.47
2024-03-02T09:24:47.588Z,7.59
2024-03-02T09:26:49.938Z,7.64
2024-03-02T09:28:52.509Z,7.51
2024-03-02T09:30:56.910Z,7.33
2024-03-02T09:35:06.206Z,7.58
2024-03-02T09:37:09.234Z,7.59
2024-03-02T09:39:11.977Z,7.64
2024-03-02T09:41:15.113Z,7.70
2024-03-02T09:43:17.798Z,7.84
2024-03-02T09:45:25.351Z,7.94
2024-03-02T09:47:30.749Z,7.79
2024-03-02T09:49:34.272Z,7.85
2024-03-02T09:51:38.693Z,7.51
2024-03-02T09:53:41.762Z,7.57
2024-03-02T09:55:49.328Z,7.73
2024-03-02T09:57:52.649Z,7.76
2024-03-02T09:59:54.936Z,7.78
2024-03-02T10:01:59.839Z,7.68
2024-03-02T10:04:04.020Z,7.58
2024-03-02T10:06:12.668Z,7.66
2024-03-02T10:08:15.102Z,7.52
2024-03-02T10:10:17.914Z,7.42
2024-03-02T10:12:20.543Z,7.46
2024-03-02T10:14:23.605Z,7.47
2024-03-02T10:16:27.107Z,7.43
2024-03-02T10:18:30.673Z,7.48
2024-03-02T10:20:34.804Z,7.58
2024-03-02T10:22:37.113Z,7.70
2024-03-02T10:24:43.247Z,7.60
2024-03-02T10:26:45.903Z,7.77
2024-03-02T10:28:49.152Z,7.80
2024-03-02T10:30:54.438Z,7.70
2024-03-02T10:32:57.528Z,7.69
2024-03-02T10:34:59.955Z,7.69
2024-03-02T10:37:04.521Z,7.64
2024-03-02T10:39:10.164Z,7.72
2024-03-02T10:41:13.019Z,7.92
2024-03-02T10:43:16.467Z,8.06
2024-03-02T10:45:21.039Z,8.15
2024-03-02T10:47:24.660Z,8.27
2024-03-02T10:49:29.409Z,8.24
2024-03-02T10:51:33.944Z,8.26
2024-03-02T10:53:36.558Z,8.25
2024-03-02T10:55:40.393Z,8.03
2024-03-02T10:57:52.424Z,8.16
2024-03-02T11:00:03.393Z,8.06
2024-03-02T11:02:08.516Z,8.03
2024-03-02T11:04:13.799Z,8.08
2024-03-02T11:06:16.782Z,8.07
2024-03-02T11:08:22.552Z,8.07
2024-03-02T11:10:27.078Z,7.95
2024-03-02T11:12:31.466Z,8.11
2024-03-02T11:14:34.941Z,8.07
2024-03-02T11:16:38.679Z,7.96
2024-03-02T11:18:45.258Z,7.90
2024-03-02T11:20:49.134Z,7.81
2024-03-02T11:22:51.988Z,7.80
2024-03-02T11:24:54.557Z,7.93
2024-03-02T11:26:58.204Z,7.70
2024-03-02T11:29:01.955Z,7.69
2024-03-02T11:31:04.562Z,7.48
2024-03-02T11:33:09.605Z,7.38
2024-03-02T11:35:15.904Z,7.40
2024-03-02T11:37:22.005Z,7.44
2024-03-02T11:39:25.105Z,7.43
2024-03-02T11:41:29.174Z,7.47
2024-03-02T11:43:32.306Z,7.50
2024-03-02T11:45:35.206Z,7.51
2024-03-02T11:47:41.262Z,7.63
2024-03-02T11:49:48.075Z,7.72
2024-03-02T11:52:02.474Z,7.91
2024-03-02T11:54:07.993Z,8.10
2024-03-02T11:56:13.285Z,8.06
2024-03-02T11:58:22.357Z,8.22
2024-03-02T12:00:25.376Z,8.33
2024-03-02T12:02:28.402Z,8.29
2024-03-02T12:04:32.664Z,8.36
2024-03-02T12:06:35.606Z,8.36
2024-03-02T12:08:38.477Z,8.54
2024-03-02T12:10:41.670Z,8.70
2024-03-02T12:12:44.011Z,8.55
2024-03-02T12:14:53.865Z,8.77
2024-03-02T12:16:57.272Z,8.63
2024-03-02T12:18:59.875Z,8.77
2024-03-02T12:21:05.615Z,8.73
2024-03-02T12:23:09.073Z,8.71
2024-03-02T12:25:11.669Z,8.61
2024-03-02T12:27:17.054Z,8.68
2024-03-02T12:29:22.521Z,8.83
2024-03-02T12:31:25.866Z,8.74
2024-03-02T12:33:29.844Z,8.84
2024-03-02T12:35:32.990Z,8.88
2024-03-02T12:37:42.958Z,8.81
2024-03-02T12:39:48.098Z,8.80
2024-03-02T12:41:52.526Z,8.67
2024-03-02T12:43:56.250Z,8.71
2024-03-02T12:45:59.177Z,8.66
2024-03-02T12:48:04.154Z,8.88
2024-03-02T12:50:07.905Z,8.82
2024-03-02T12:52:10.615Z,8.95
2024-03-02T12:54:13.101Z,8.93
2024-03-02T12:56:15.501Z,9.12
2024-03-02T12:58:23.134Z,8.92
2024-03-02T13:00:26.911Z,8.85
2024-03-02T13:02:31.991Z,8.96
2024-03-02T13:04:34.218Z,8.91
2024-03-02T13:06:36.595Z,9.04
2024-03-02T13:08:40.028Z,9.21
2024-03-02T13:10:42.853Z,9.21
2024-03-02T13:12:45.417Z,9.23
2024-03-02T13:14:51.805Z,9.22
2024-03-02T13:16:54.278Z,9.29
2024-03-02T13:18:57.486Z,9.26
2024-03-02T13:21:00.133Z,9.22
2024-03-02T13:23:03.172Z,9.16
2024-03-02T13:25:07.651Z,9.33
2024-03-02T13:27:10.650Z,9.26
2024-03-02T13:29:13.123Z,9.42
2024-03-02T13:31:15.624Z,9.48
2024-03-02T13:33:20.946Z,9.25
2024-03-02T13:35:23.289Z,9.32
2024-03-02T13:37:26.009Z,9.19
2024-03-02T13:39:28.670Z,9.21
2024-03-02T13:41:31.261Z,9.40
2024-03-02T13:43:33.890Z,9.72
2024-03-02T13:45:36.185Z,9.92
2024-03-02T13:47:38.725Z,10.24
2024-03-02T13:49:45.018Z,10.34
2024-03-02T13:51:50.564Z,10.22
2024-03-02T13:53:53.790Z,10.24
2024-03-02T13:55:56.595Z,10.27
2024-03-02T13:57:59.719Z,10.50
2024-03-02T14:00:02.979Z,10.64
2024-03-02T14:02:08.970Z,10.74
2024-03-02T14:04:11.553Z,10.80
2024-03-02T14:06:14.997Z,10.97
2024-03-02T14:08:19.892Z,10.94
2024-03-02T14:10:24.297Z,11.09
2024-03-02T14:12:26.869Z,11.20
2024-03-02T14:14:29.621Z,11.35
2024-03-02T14:16:32.653Z,11.54
2024-03-02T14:18:35.304Z,11.33
2024-03-02T14:20:42.590Z,11.29
2024-03-02T14:22:45.619Z,11.23
2024-03-02T14:24:49.236Z,11.20
2024-03-02T14:26:51.923Z,11.26
2024-03-02T14:28:56.786Z,11.19
2024-03-02T14:31:02.371Z,11.18
2024-03-02T14:33:05.167Z,11.26
2024-03-02T14:35:12.124Z,11.14
2024-03-02T14:37:16.236Z,11.05
2024-03-02T14:39:20.652Z,11.01
2024-03-02T14:41:25.196Z,11.22
2024-03-02T14:43:27.817Z,11.36
2024-03-02T14:45:30.458Z,11.53
2024-03-02T14:47:36.791Z,11.64
2024-03-02T14:49:41.671Z,11.72
2024-03-02T14:51:45.291Z,11.89
2024-03-02T14:53:47.767Z,11.98
2024-03-02T14:55:51.050Z,11.96
2024-03-02T14:57:54.361Z,11.88
2024-03-02T14:59:56.991Z,11.69
2024-03-02T15:01:59.384Z,11.62
2024-03-02T15:04:01.658Z,11.65
2024-03-02T15:06:05.668Z,11.63
2024-03-02T15:08:08.771Z,11.74
2024-03-02T15:10:11.237Z,11.85
2024-03-02T15:12:15.832Z,11.55
2024-03-02T15:14:18.214Z,11.40
2024-03-02T15:16:20.809Z,11.59
2024-03-02T15:18:23.136Z,11.68
2024-03-02T15:20:25.555Z,11.51
2024-03-02T15:22:28.488Z,11.33
2024-03-02T15:24:31.293Z,11.62
2024-03-02T15:26:35.845Z,11.57
2024-03-02T15:28:39.135Z,11.48
2024-03-02T15:30:41.502Z,11.51
2024-03-02T15:32:43.918Z,11.44
2024-03-02T15:34:46.575Z,11.55
2024-03-02T15:36:49.121Z,11.51
2024-03-02T15:38:51.720Z,11.48
2024-03-02T15:40:54.494Z,11.32
2024-03-02T15:42:57.058Z,11.32
2024-03-02T15:45:01.071Z,11.21
2024-03-02T15:47:04.417Z,11.05
2024-03-02T15:49:07.901Z,10.78
2024-03-02T15:51:10.491Z,10.73
2024-03-02T15:53:12.954Z,10.67
2024-03-02T15:55:15.819Z,10.52
2024-03-02T15:57:18.978Z,10.51
2024-03-02T15:59:21.675Z,10.32
2024-03-02T16:01:25.237Z,10.21
2024-03-02T16:03:28.737Z,10.29
2024-03-02T16:05:31.099Z,10.39
2024-03-02T16:07:33.254Z,10.10
2024-03-02T16:09:35.884Z,10.08
2024-03-02T16:11:38.732Z,10.07
2024-03-02T16:13:41.850Z,9.81
2024-03-02T16:15:44.364Z,9.67
2024-03-02T16:17:46.628Z,9.61
2024-03-02T16:19:49.110Z,9.48
2024-03-02T16:21:51.755Z,9.50
2024-03-02T16:23:54.312Z,9.43
2024-03-02T16:25:56.767Z,9.13
2024-03-02T16:27:59.784Z,9.21
2024-03-02T16:30:04.859Z,9.22
2024-03-02T16:32:09.488Z,9.24
2024-03-02T16:34:12.330Z,9.34
2024-03-02T16:36:14.794Z,9.33
2024-03-02T16:38:17.209Z,9.32
2024-03-02T16:40:19.922Z,9.37
2024-03-02T16:42:22.581Z,9.42
2024-03-02T16:44:24.946Z,9.46
2024-03-02T16:46:27.268Z,9.57
2024-03-02T16:48:29.922Z,9.62
2024-03-02T16:50:33.187Z,9.67
2024-03-02T16:52:35.903Z,9.66
2024-03-02T16:54:38.359Z,9.56
2024-03-02T16:56:42.171Z,9.56
2024-03-02T16:58:44.817Z,9.45
2024-03-02T17:00:47.492Z,9.62
2024-03-02T17:02:50.025Z,9.59
2024-03-02T17:04:52.632Z,9.58
2024-03-02T17:06:56.007Z,9.47
2024-03-02T17:08:58.732Z,9.41
2024-03-02T17:11:01.374Z,9.44
2024-03-02T17:13:06.278Z,9.32
2024-03-02T17:15:09.261Z,9.29
2024-03-02T17:17:11.768Z,9.29
2024-03-02T17:19:14.285Z,9.33
2024-03-02T17:21:24.763Z,9.27
2024-03-02T17:23:32.414Z,9.32
2024-03-02T17:25:34.938Z,9.30
2024-03-02T17:27:38.620Z,9.44
2024-03-02T17:29:41.128Z,9.34
2024-03-02T17:31:43.969Z,9.54
2024-03-02T17:33:46.400Z,9.46
2024-03-02T17:35:53.359Z,9.51
2024-03-02T17:37:56.354Z,9.46
2024-03-02T17:39:58.978Z,9.49
2024-03-02T17:42:01.674Z,9.49
2024-03-02T17:44:04.428Z,9.58
2024-03-02T17:46:07.250Z,9.57
2024-03-02T17:48:10.454Z,9.46
2024-03-02T17:50:13.124Z,9.42
2024-03-02T17:52:16.029Z,9.30
2024-03-02T17:54:18.649Z,9.40
2024-03-02T17:56:21.017Z,9.45
2024-03-02T17:58:23.464Z,9.24
2024-03-02T18:00:26.226Z,9.31
2024-03-02T18:02:31.501Z,9.34
2024-03-02T18:04:34.040Z,9.32
2024-03-02T18:06:36.394Z,9.36
2024-03-02T18:08:39.449Z,9.38
2024-03-02T18:10:42.637Z,9.43
2024-03-02T18:12:45.830Z,9.51
2024-03-02T18:14:48.788Z,9.51
2024-03-02T18:16:51.044Z,9.52
2024-03-02T18:18:53.848Z,9.54
2024-03-02T18:20:57.141Z,9.33
2024-03-02T18:23:00.961Z,9.29
2024-03-02T18:25:04.388Z,9.32
2024-03-02T18:27:06.738Z,9.42
2024-03-02T18:29:10.077Z,9.36
2024-03-02T18:31:12.495Z,9.29
2024-03-02T18:33:16.363Z,9.28
2024-03-02T18:35:19.499Z,9.36
2024-03-02T18:37:23.413Z,9.36
2024-03-02T18:39:25.862Z,9.24
2024-03-02T18:41:28.202Z,9.14
2024-03-02T18:43:31.801Z,9.22
2024-03-02T18:45:34.037Z,9.16
2024-03-02T18:47:39.160Z,9.11
2024-03-02T18:49:47.984Z,9.10
2024-03-02T18:51:50.433Z,9.08
2024-03-02T18:53:53.620Z,9.03
2024-03-02T18:55:57.683Z,9.07
2024-03-02T18:58:00.660Z,9.01
2024-03-02T19:00:07.220Z,8.98
2024-03-02T19:02:10.573Z,8.99
2024-03-02T19:04:15.243Z,9.02
2024-03-02T19:06:18.236Z,8.92
2024-03-02T19:08:21.076Z,8.86
2024-03-02T19:10:25.146Z,8.81
2024-03-02T19:12:27.865Z,8.83
2024-03-02T19:14:30.420Z,8.79
2024-03-02T19:16:32.619Z,8.75
2024-03-02T19:18:35.157Z,8.74
2024-03-02T19:20:39.607Z,8.62
2024-03-02T19:22:45.928Z,8.74
2024-03-02T19:24:48.401Z,8.75
2024-03-02T19:26:51.197Z,8.70
2024-03-02T19:28:53.848Z,8.56
2024-03-02T19:30:56.247Z,8.70
2024-03-02T19:32:58.755Z,8.70
2024-03-02T19:35:01.438Z,8.70
2024-03-02T19:37:04.754Z,8.67
2024-03-02T19:39:08.977Z,8.80
2024-03-02T19:41:11.524Z,8.67
2024-03-02T19:43:18.950Z,8.66
2024-03-02T19:45:24.315Z,8.59
2024-03-02T19:47:27.876Z,8.75
2024-03-02T19:49:30.373Z,8.71
2024-03-02T19:51:33.103Z,8.69
2024-03-02T19:53:40.239Z,8.64
2024-03-02T19:55:45.265Z,8.79
2024-03-02T19:57:47.865Z,8.66
2024-03-02T19:59:50.101Z,8.78
2024-03-02T20:01:52.599Z,8.67
2024-03-02T20:03:55.264Z,8.65
2024-03-02T20:05:57.503Z,8.62
2024-03-02T20:08:00.048Z,8.59
2024-03-02T20:10:02.745Z,8.55
2024-03-02T20:12:06.069Z,8.55
2024-03-02T20:14:11.516Z,8.54
2024-03-02T20:16:13.837Z,8.71
2024-03-02T20:18:16.360Z,8.70
2024-03-02T20:20:18.944Z,8.71
2024-03-02T20:22:23.608Z,8.64
2024-03-02T20:24:26.153Z,8.66
2024-03-02T20:26:28.399Z,8.61
2024-03-02T20:28:30.546Z,8.60
2024-03-02T20:30:33.399Z,8.56
2024-03-02T20:32:35.622Z,8.49
2024-03-02T20:34:38.058Z,8.55
2024-03-02T20:36:41.956Z,8.56
2024-03-02T20:38:45.560Z,8.56
2024-03-02T20:40:52.179Z,8.57
2024-03-02T20:42:55.749Z,8.43
2024-03-02T20:44:57.912Z,8.41
2024-03-02T20:47:00.502Z,8.41
2024-03-02T20:49:05.031Z,8.41
2024-03-02T20:51:07.942Z,8.45
2024-03-02T20:53:10.481Z,8.47
2024-03-02T20:55:13.185Z,8.44
2024-03-02T20:57:15.896Z,8.57
2024-03-02T20:59:19.079Z,8.44
2024-03-02T21:01:23.013Z,8.46
2024-03-02T21:03:25.276Z,8.60
2024-03-02T21:05:27.344Z,8.56
2024-03-02T21:07:29.601Z,8.45
2024-03-02T21:09:32.271Z,8.53
2024-03-02T21:11:34.468Z,8.60
2024-03-02T21:13:37.572Z,8.56
2024-03-02T21:15:39.706Z,8.59
2024-03-02T21:17:42.127Z,8.59
2024-03-02T21:19:44.639Z,8.50
2024-03-02T21:21:47.292Z,8.60
2024-03-02T21:23:52.174Z,8.56
2024-03-02T21:25:54.365Z,8.42
2024-03-02T21:27:56.556Z,8.47
2024-03-02T21:29:58.807Z,8.45
2024-03-02T21:32:01.160Z,8.45
2024-03-02T21:34:03.375Z,8.39
2024-03-02T21:36:06.069Z,8.51
2024-03-02T21:38:08.998Z,8.23
2024-03-02T21:40:12.746Z,8.35
2024-03-02T21:42:14.862Z,8.23
2024-03-02T21:44:19.051Z,8.29
2024-03-02T21:46:21.279Z,8.31
2024-03-02T21:48:23.592Z,8.27
2024-03-02T21:50:30.019Z,8.44
2024-03-02T21:52:32.524Z,8.37
2024-03-02T21:54:37.136Z,8.26
2024-03-02T21:56:39.318Z,8.29
2024-03-02T21:58:41.857Z,8.31
2024-03-02T22:00:47.124Z,8.23
2024-03-02T22:02:49.370Z,8.38
2024-03-02T22:04:51.613Z,8.33
2024-03-02T22:06:55.442Z,8.35
2024-03-02T22:08:57.814Z,8.32
2024-03-02T22:11:00.162Z,8.21
2024-03-02T22:13:02.703Z,8.18
2024-03-02T22:15:05.674Z,8.16
2024-03-02T22:17:07.797Z,8.08
2024-03-02T22:19:10.929Z,8.09
2024-03-02T22:21:17.100Z,8.14
2024-03-02T22:23:19.354Z,8.24
2024-03-02T22:25:21.474Z,8.18
2024-03-02T22:27:26.485Z,8.11
2024-03-02T22:29:29.095Z,8.23
2024-03-02T22:31:31.839Z,8.13
2024-03-02T22:33:33.904Z,8.21
2024-03-02T22:35:36.040Z,8.30
2024-03-02T22:37:38.102Z,8.37
2024-03-02T22:39:42.857Z,8.46
2024-03-02T22:41:45.282Z,8.35
2024-03-02T22:43:49.530Z,8.41
2024-03-02T22:45:51.947Z,8.39
2024-03-02T22:47:55.542Z,8.39
2024-03-02T22:49:59.805Z,8.44
2024-03-02T22:52:03.994Z,8.42
2024-03-02T22:54:06.497Z,8.43
2024-03-02T22:56:08.514Z,8.48
2024-03-02T22:58:10.967Z,8.47
2024-03-02T23:00:17.014Z,8.36
2024-03-02T23:02:22.664Z,8.37
2024-03-02T23:04:25.264Z,8.30
2024-03-02T23:06:27.911Z,8.47
2024-03-02T23:08:30.008Z,8.37
2024-03-02T23:10:32.828Z,8.46
2024-03-02T23:12:35.261Z,8.45
2024-03-02T23:14:39.624Z,8.52
2024-03-02T23:16:45.605Z,8.48
2024-03-02T23:18:47.972Z,8.60
2024-03-02T23:20:50.166Z,8.49
2024-03-02T23:22:52.340Z,8.62
2024-03-02T23:24:54.419Z,8.63
2024-03-02T23:26:56.561Z,8.59
2024-03-02T23:28:59.041Z,8.56
2024-03-02T23:31:01.810Z,8.49
2024-03-02T23:33:07.292Z,8.36
2024-03-02T23:35:09.749Z,8.38
2024-03-02T23:37:11.910Z,8.31
2024-03-02T23:39:34.021Z,8.36
2024-03-02T23:41:36.309Z,8.38
2024-03-02T23:43:39.283Z,8.30
2024-03-02T23:45:41.345Z,8.21
2024-03-02T23:47:45.647Z,8.31
2024-03-02T23:49:48.075Z,8.18
2024-03-02T23:51:50.758Z,8.15
2024-03-02T23:53:52.947Z,8.24
2024-03-02T23:55:55.304Z,8.21
2024-03-02T23:57:58.181Z,8.20
